Peotone Weather
Station Historical Data
 
Daily Summary for May 27, 2015 Units:  English    Metric   Both
« Previous Day
Next Day »
Daily Weekly Monthly Yearly Custom
  Current: High: Low: Average:
Temperature: 74.4 °F 75.1 °F 64.4 °F 68.5 °F
Dew Point: 61.9 °F 64.6 °F 60.8 °F 62.5 °F
Humidity: 65% 91% 64% 82%
Wind Speed: 10.3mph 19.5mph 2.3mph 9.6mph
Wind Gust: 23.0mph 26.4mph - -
WindWest - - WSW
Pressure: 29.97 in 29.98 in 29.84 in -
Precipitation: 0.00 in      
Historical Graphs
 
 
Tabular Data for May 27, 2015
Time Temperature Dew Point Pressure Wind Wind Speed Wind Gust Humidity Rainfall Rate (Hourly) solar Conditions
00:10 68.7 °F 62.6 °F 29.85 in SW 11.5 mph 18.4 mph 81% 0.00 in 0.00 W/m2
00:15 68.7 °F 62.6 °F 29.85 in SSW 10.3 mph 19.5 mph 81% 0.00 in 0.00 W/m2
00:20 68.7 °F 62.6 °F 29.85 in South 14.9 mph 17.2 mph 81% 0.00 in 0.00 W/m2
00:25 68.8 °F 62.7 °F 29.85 in SSW 14.9 mph 24.1 mph 81% 0.00 in 0.00 W/m2
00:30 68.9 °F 62.8 °F 29.85 in South 10.3 mph 25.3 mph 81% 0.00 in 0.00 W/m2
00:35 68.9 °F 62.8 °F 29.85 in SSW 10.3 mph 21.9 mph 81% 0.00 in 0.00 W/m2
00:40 68.9 °F 62.8 °F 29.84 in SSW 13.8 mph 19.5 mph 81% 0.00 in 0.00 W/m2
00:45 68.8 °F 62.7 °F 29.84 in SSE 9.2 mph 20.7 mph 81% 0.00 in 0.00 W/m2
00:50 68.8 °F 62.7 °F 29.84 in South 12.6 mph 21.9 mph 81% 0.00 in 0.00 W/m2
00:55 68.7 °F 62.6 °F 29.84 in SSW 10.3 mph 18.4 mph 81% 0.00 in 0.00 W/m2
01:00 68.7 °F 62.6 °F 29.84 in South 9.2 mph 20.7 mph 81% 0.00 in 0.00 W/m2
01:06 68.6 °F 62.5 °F 29.85 in WSW 14.9 mph 18.4 mph 81% 0.00 in 0.00 W/m2
01:11 68.5 °F 62.5 °F 29.85 in West 13.8 mph 20.7 mph 81% 0.00 in 0.00 W/m2
01:16 68.4 °F 62.3 °F 29.85 in SSW 10.3 mph 13.8 mph 81% 0.00 in 0.00 W/m2
01:21 68.4 °F 62.3 °F 29.85 in SW 13.8 mph 20.7 mph 81% 0.00 in 0.00 W/m2
01:26 68.5 °F 62.5 °F 29.86 in SW 8.1 mph 24.1 mph 81% 0.00 in 0.00 W/m2
01:31 68.7 °F 62.6 °F 29.86 in SW 9.2 mph 25.3 mph 81% 0.00 in 0.00 W/m2
01:36 69.0 °F 62.9 °F 29.87 in West 9.2 mph 17.2 mph 81% 0.00 in 0.00 W/m2
01:41 68.9 °F 62.8 °F 29.86 in WSW 12.6 mph 18.4 mph 81% 0.00 in 0.00 W/m2
01:46 68.6 °F 62.5 °F 29.86 in WSW 6.9 mph 6.9 mph 81% 0.00 in 0.00 W/m2
01:52 68.3 °F 62.6 °F 29.86 in West 6.9 mph 6.9 mph 82% 0.00 in 0.00 W/m2
01:57 67.9 °F 62.5 °F 29.86 in SW 5.8 mph 8.1 mph 83% 0.00 in 0.00 W/m2
02:02 67.6 °F 62.3 °F 29.85 in SW 5.8 mph 9.2 mph 83% 0.00 in 0.00 W/m2
02:07 67.2 °F 62.2 °F 29.85 in WSW 10.3 mph 10.3 mph 84% 0.00 in 0.00 W/m2
02:12 66.9 °F 62.2 °F 29.85 in WSW 4.6 mph 8.1 mph 85% 0.00 in 0.00 W/m2
02:17 66.5 °F 61.9 °F 29.85 in SW 10.3 mph 10.3 mph 85% 0.00 in 0.00 W/m2
02:22 66.3 °F 62.0 °F 29.85 in WSW 6.9 mph 6.9 mph 86% 0.00 in 0.00 W/m2
02:27 66.2 °F 61.9 °F 29.85 in SSW 8.1 mph 8.1 mph 86% 0.00 in 0.00 W/m2
02:32 66.2 °F 61.9 °F 29.85 in SSW 6.9 mph 8.1 mph 86% 0.00 in 0.00 W/m2
02:37 66.1 °F 61.8 °F 29.85 in SW 3.4 mph 12.6 mph 86% 0.00 in 0.00 W/m2
02:43 66.0 °F 62.0 °F 29.85 in WSW 10.3 mph 10.3 mph 87% 0.00 in 0.00 W/m2
02:48 65.9 °F 61.9 °F 29.85 in SW 6.9 mph 9.2 mph 87% 0.00 in 0.00 W/m2
02:53 65.8 °F 61.8 °F 29.85 in SW 8.1 mph 8.1 mph 87% 0.00 in 0.00 W/m2
02:58 65.7 °F 61.7 °F 29.86 in SSW 4.6 mph 9.2 mph 87% 0.00 in 0.00 W/m2
03:03 65.6 °F 61.6 °F 29.86 in SW 5.8 mph 6.9 mph 87% 0.00 in 0.00 W/m2
03:08 65.5 °F 61.9 °F 29.86 in SW 4.6 mph 11.5 mph 88% 0.00 in 0.00 W/m2
03:13 65.5 °F 61.9 °F 29.86 in SSW 5.8 mph 10.3 mph 88% 0.00 in 0.00 W/m2
03:19 65.5 °F 61.9 °F 29.86 in SSW 11.5 mph 11.5 mph 88% 0.00 in 0.00 W/m2
03:24 65.5 °F 61.9 °F 29.86 in SW 12.6 mph 12.6 mph 88% 0.00 in 0.00 W/m2
03:29 65.5 °F 61.9 °F 29.86 in South 5.8 mph 12.6 mph 88% 0.00 in 0.00 W/m2
03:34 65.6 °F 62.0 °F 29.86 in South 5.8 mph 12.6 mph 88% 0.00 in 0.00 W/m2
03:39 65.5 °F 61.9 °F 29.86 in South 6.9 mph 13.8 mph 88% 0.00 in 0.00 W/m2
03:44 65.6 °F 62.0 °F 29.87 in SW 8.1 mph 14.9 mph 88% 0.00 in 0.00 W/m2
03:49 65.5 °F 61.9 °F 29.87 in South 3.4 mph 13.8 mph 88% 0.00 in 0.00 W/m2
03:54 65.5 °F 61.9 °F 29.87 in SSW 10.3 mph 11.5 mph 88% 0.00 in 0.00 W/m2
03:59 65.5 °F 61.9 °F 29.87 in SW 13.8 mph 16.1 mph 88% 0.00 in 0.00 W/m2
04:05 65.4 °F 61.8 °F 29.87 in SW 6.9 mph 10.3 mph 88% 0.00 in 0.00 W/m2
04:10 65.4 °F 61.8 °F 29.88 in WSW 10.3 mph 14.9 mph 88% 0.00 in 0.00 W/m2
04:15 65.5 °F 61.9 °F 29.88 in SW 4.6 mph 10.3 mph 88% 0.00 in 0.00 W/m2
04:20 65.5 °F 61.9 °F 29.88 in WSW 8.1 mph 17.2 mph 88% 0.00 in 0.00 W/m2
04:25 65.5 °F 61.9 °F 29.88 in SSW 9.2 mph 13.8 mph 88% 0.00 in 0.00 W/m2
04:30 65.5 °F 61.9 °F 29.89 in SSW 6.9 mph 11.5 mph 88% 0.00 in 0.00 W/m2
04:35 65.4 °F 61.8 °F 29.89 in SSW 8.1 mph 14.9 mph 88% 0.00 in 0.00 W/m2
04:40 65.3 °F 61.7 °F 29.88 in SSW 4.6 mph 11.5 mph 88% 0.00 in 0.00 W/m2
04:45 65.2 °F 61.9 °F 29.89 in WSW 5.8 mph 12.6 mph 89% 0.00 in 0.00 W/m2
04:51 65.1 °F 61.8 °F 29.89 in SW 4.6 mph 12.6 mph 89% 0.00 in 0.00 W/m2
04:56 65.1 °F 61.8 °F 29.89 in West 4.6 mph 13.8 mph 89% 0.00 in 0.00 W/m2
05:01 65.0 °F 61.7 °F 29.89 in SSW 8.1 mph 11.5 mph 89% 0.00 in 0.00 W/m2
05:06 64.9 °F 61.6 °F 29.89 in SSW 6.9 mph 11.5 mph 89% 0.00 in 0.00 W/m2
05:11 64.7 °F 61.4 °F 29.90 in SSW 6.9 mph 14.9 mph 89% 0.00 in 0.00 W/m2
05:16 64.7 °F 61.7 °F 29.90 in WSW 4.6 mph 12.6 mph 90% 0.00 in 0.00 W/m2
05:21 64.6 °F 61.6 °F 29.90 in WSW 11.5 mph 11.5 mph 90% 0.00 in 0.00 W/m2
05:26 64.6 °F 61.6 °F 29.90 in SW 4.6 mph 10.3 mph 90% 0.00 in 5.00 W/m2
05:31 64.5 °F 61.5 °F 29.91 in SSW 6.9 mph 9.2 mph 90% 0.00 in 7.00 W/m2
05:36 64.4 °F 61.4 °F 29.91 in SSW 10.3 mph 11.5 mph 90% 0.00 in 12.00 W/m2
05:41 64.4 °F 61.4 °F 29.91 in WSW 2.3 mph 11.5 mph 90% 0.00 in 14.00 W/m2
05:46 64.4 °F 61.4 °F 29.91 in SSW 5.8 mph 11.5 mph 90% 0.00 in 21.00 W/m2
05:51 64.4 °F 61.7 °F 29.91 in SSW 8.1 mph 11.5 mph 91% 0.00 in 33.00 W/m2
05:57 64.5 °F 61.8 °F 29.91 in SW 8.1 mph 8.1 mph 91% 0.00 in 30.00 W/m2
06:02 64.6 °F 61.9 °F 29.92 in SSW 2.3 mph 9.2 mph 91% 0.00 in 35.00 W/m2
06:07 64.7 °F 61.7 °F 29.92 in SW 4.6 mph 4.6 mph 90% 0.00 in 39.00 W/m2
06:12 64.8 °F 62.1 °F 29.92 in SSW 3.4 mph 6.9 mph 91% 0.00 in 84.00 W/m2
06:17 65.0 °F 62.0 °F 29.92 in SSW 4.6 mph 10.3 mph 90% 0.00 in 130.00 W/m2
06:22 65.3 °F 62.3 °F 29.92 in SSW 10.3 mph 10.3 mph 90% 0.00 in 148.00 W/m2
06:27 65.7 °F 62.7 °F 29.92 in WSW 16.1 mph 16.1 mph 90% 0.00 in 149.00 W/m2
06:32 65.9 °F 62.6 °F 29.92 in SSW 5.8 mph 8.1 mph 89% 0.00 in 172.00 W/m2
06:37 66.1 °F 62.8 °F 29.92 in SW 10.3 mph 10.3 mph 89% 0.00 in 207.00 W/m2
06:42 66.4 °F 63.1 °F 29.92 in SSW 5.8 mph 11.5 mph 89% 0.00 in 216.00 W/m2
06:48 66.6 °F 62.9 °F 29.92 in SSW 8.1 mph 8.1 mph 88% 0.00 in 202.00 W/m2
06:53 66.7 °F 63.0 °F 29.92 in SW 10.3 mph 13.8 mph 88% 0.00 in 211.00 W/m2
06:58 66.7 °F 63.0 °F 29.92 in WSW 10.3 mph 12.6 mph 88% 0.00 in 229.00 W/m2
07:03 66.9 °F 63.2 °F 29.92 in SW 10.3 mph 10.3 mph 88% 0.00 in 251.00 W/m2
07:08 67.2 °F 63.5 °F 29.92 in WSW 9.2 mph 12.6 mph 88% 0.00 in 258.00 W/m2
07:13 67.4 °F 63.4 °F 29.93 in West 10.3 mph 12.6 mph 87% 0.00 in 250.00 W/m2
07:18 67.5 °F 63.5 °F 29.93 in WSW 4.6 mph 9.2 mph 87% 0.00 in 188.00 W/m2
07:23 67.6 °F 63.6 °F 29.93 in WSW 8.1 mph 12.6 mph 87% 0.00 in 83.00 W/m2
07:29 67.4 °F 63.4 °F 29.93 in WSW 13.8 mph 19.5 mph 87% 0.00 in 271.00 W/m2
07:34 67.6 °F 63.6 °F 29.93 in WSW 10.3 mph 14.9 mph 87% 0.00 in 320.00 W/m2
07:39 67.9 °F 63.9 °F 29.94 in WSW 16.1 mph 17.2 mph 87% 0.00 in 338.00 W/m2
07:44 68.3 °F 64.0 °F 29.95 in WSW 16.1 mph 17.2 mph 86% 0.00 in 339.00 W/m2
07:49 68.3 °F 64.0 °F 29.94 in WSW 9.2 mph 16.1 mph 86% 0.00 in 171.00 W/m2
07:54 68.5 °F 64.2 °F 29.95 in West 4.6 mph 14.9 mph 86% 0.00 in 450.00 W/m2
07:59 69.0 °F 64.3 °F 29.95 in WSW 9.2 mph 19.5 mph 85% 0.00 in 496.00 W/m2
08:05 69.2 °F 64.2 °F 29.95 in West 14.9 mph 18.4 mph 84% 0.00 in 327.00 W/m2
08:10 69.2 °F 64.2 °F 29.94 in WSW 16.1 mph 24.1 mph 84% 0.00 in 223.00 W/m2
08:15 69.0 °F 64.0 °F 29.94 in WSW 13.8 mph 13.8 mph 84% 0.00 in 178.00 W/m2
08:20 69.2 °F 64.2 °F 29.95 in SW 11.5 mph 20.7 mph 84% 0.00 in 179.00 W/m2
08:25 69.3 °F 64.3 °F 29.95 in WSW 17.2 mph 17.2 mph 84% 0.00 in 186.00 W/m2
08:30 69.4 °F 64.4 °F 29.94 in SW 10.3 mph 17.2 mph 84% 0.00 in 142.00 W/m2
08:35 69.8 °F 64.4 °F 29.94 in SW 11.5 mph 20.7 mph 83% 0.00 in 613.00 W/m2
08:40 70.2 °F 64.4 °F 29.94 in WNW 10.3 mph 18.4 mph 82% 0.00 in 613.00 W/m2
08:46 70.3 °F 64.2 °F 29.95 in WSW 6.9 mph 19.5 mph 81% 0.00 in 698.00 W/m2
08:51 70.6 °F 64.5 °F 29.95 in WSW 13.8 mph 20.7 mph 81% 0.00 in 654.00 W/m2
08:56 70.7 °F 63.9 °F 29.94 in SW 9.2 mph 20.7 mph 79% 0.00 in 237.00 W/m2
09:01 71.1 °F 64.6 °F 29.94 in SSW 4.6 mph 13.8 mph 80% 0.00 in 619.00 W/m2
09:06 71.3 °F 64.5 °F 29.94 in West 8.1 mph 16.1 mph 79% 0.00 in 608.00 W/m2
09:11 71.0 °F 63.8 °F 29.94 in WNW 16.1 mph 18.4 mph 78% 0.00 in 527.00 W/m2
09:16 71.2 °F 64.0 °F 29.94 in West 12.6 mph 19.5 mph 78% 0.00 in 621.00 W/m2
09:21 71.2 °F 64.0 °F 29.94 in West 11.5 mph 17.2 mph 78% 0.00 in 244.00 W/m2
09:26 71.5 °F 63.5 °F 29.95 in SSW 11.5 mph 16.1 mph 76% 0.00 in 650.00 W/m2
09:31 71.7 °F 63.7 °F 29.95 in West 14.9 mph 23.0 mph 76% 0.00 in 830.00 W/m2
09:36 71.6 °F 63.3 °F 29.95 in West 8.1 mph 23.0 mph 75% 0.00 in 264.00 W/m2
09:41 71.9 °F 63.5 °F 29.95 in West 8.1 mph 21.9 mph 75% 0.00 in 673.00 W/m2
09:46 71.8 °F 63.5 °F 29.95 in WSW 13.8 mph 20.7 mph 75% 0.00 in 308.00 W/m2
09:51 71.9 °F 63.5 °F 29.95 in WNW 13.8 mph 20.7 mph 75% 0.00 in 316.00 W/m2
09:57 71.5 °F 63.2 °F 29.95 in WSW 14.9 mph 16.1 mph 75% 0.00 in 425.00 W/m2
10:02 71.4 °F 62.7 °F 29.95 in WSW 19.5 mph 19.5 mph 74% 0.00 in 726.00 W/m2
10:07 71.6 °F 62.9 °F 29.95 in West 11.5 mph 11.5 mph 74% 0.00 in 348.00 W/m2
10:12 71.2 °F 62.5 °F 29.95 in West 6.9 mph 12.6 mph 74% 0.00 in 216.00 W/m2
10:17 71.1 °F 62.8 °F 29.95 in WNW 11.5 mph 11.5 mph 75% 0.00 in 221.00 W/m2
10:22 70.8 °F 62.1 °F 29.95 in West 13.8 mph 13.8 mph 74% 0.00 in 336.00 W/m2
10:27 71.1 °F 62.0 °F 29.95 in West 11.5 mph 18.4 mph 73% 0.00 in 378.00 W/m2
10:32 71.5 °F 62.0 °F 29.95 in WNW 9.2 mph 11.5 mph 72% 0.00 in 374.00 W/m2
10:37 71.5 °F 61.6 °F 29.96 in WSW 9.2 mph 16.1 mph 71% 0.00 in 345.00 W/m2
10:43 71.9 °F 62.0 °F 29.96 in West 11.5 mph 14.9 mph 71% 0.00 in 589.00 W/m2
10:48 71.9 °F 61.2 °F 29.96 in WSW 10.3 mph 14.9 mph 69% 0.00 in 390.00 W/m2
10:53 72.0 °F 61.3 °F 29.96 in WSW 6.9 mph 14.9 mph 69% 0.00 in 394.00 W/m2
10:58 72.5 °F 60.9 °F 29.96 in WNW 8.1 mph 12.6 mph 67% 0.00 in 652.00 W/m2
11:03 72.8 °F 60.8 °F 29.96 in West 8.1 mph 19.5 mph 66% 0.00 in 844.00 W/m2
11:08 73.1 °F 61.1 °F 29.96 in WSW 12.6 mph 21.9 mph 66% 0.00 in 360.00 W/m2
11:13 72.7 °F 61.1 °F 29.96 in WSW 6.9 mph 12.6 mph 67% 0.00 in 775.00 W/m2
11:18 72.8 °F 60.8 °F 29.96 in West 14.9 mph 19.5 mph 66% 0.00 in 682.00 W/m2
11:23 73.4 °F 61.8 °F 29.96 in WSW 19.5 mph 20.7 mph 67% 0.00 in 905.00 W/m2
11:28 73.6 °F 61.1 °F 29.97 in WSW 16.1 mph 19.5 mph 65% 0.00 in 464.00 W/m2
11:34 73.9 °F 61.4 °F 29.97 in West 11.5 mph 20.7 mph 65% 0.00 in 846.00 W/m2
11:44 73.2 °F 61.2 °F 29.97 in West 11.5 mph 17.2 mph 66% 0.00 in 144.00 W/m2
11:49 73.3 °F 61.7 °F 29.97 in West 13.8 mph 16.1 mph 67% 0.00 in 860.00 W/m2
11:54 73.6 °F 61.5 °F 29.97 in West 16.1 mph 18.4 mph 66% 0.00 in 770.00 W/m2
11:59 74.5 °F 62.8 °F 29.97 in WSW 10.3 mph 14.9 mph 67% 0.00 in 900.00 W/m2
12:04 74.5 °F 62.0 °F 29.98 in WNW 5.8 mph 16.1 mph 65% 0.00 in 954.00 W/m2
12:09 74.8 °F 62.3 °F 29.98 in West 10.3 mph 26.4 mph 65% 0.00 in 814.00 W/m2
12:14 75.1 °F 62.1 °F 29.97 in WNW 8.1 mph 17.2 mph 64% 0.00 in 766.00 W/m2
12:19 74.6 °F 61.6 °F 29.97 in West 13.8 mph 20.7 mph 64% 0.00 in 411.00 W/m2
12:30 74.2 °F 61.7 °F 29.97 in West 14.9 mph 20.7 mph 65% 0.00 in 742.00 W/m2
12:35 74.4 °F 61.9 °F 29.97 in West 10.3 mph 23.0 mph 65% 0.00 in 376.00 W/m2
Peotone Weather Data
Compliments of Weather Underground